Time;durP1;ratioP1;P1;durP2;ratioP2;P2;SDS_P1;SDS_P2;PMS_P1;PMS_P2;Temp;Humidity;BMP_temperature;BMP_pressure;BME280_temperature;BME280_humidity;BME280_pressure;Samples;Min_cycle;Max_cycle;Signal;HPM_P1;HPM_P2
2021/06/17 00:01:21;;;;;;;9.52;5.20;;;24.50;64.00;;;;;;5052255;28;20021;-75
2021/06/17 00:03:46;;;;;;;6.28;4.97;;;24.50;64.00;;;;;;5051621;28;20113;-76
2021/06/17 00:06:12;;;;;;;6.40;4.60;;;24.50;64.10;;;;;;5051313;28;20013;-75
2021/06/17 00:08:37;;;;;;;6.80;4.45;;;24.50;64.20;;;;;;5051718;28;20093;-75
2021/06/17 00:11:03;;;;;;;7.28;4.95;;;24.50;64.30;;;;;;5051403;28;20017;-75
2021/06/17 00:13:33;;;;;;;6.40;4.35;;;24.50;64.40;;;;;;5050694;28;20365;-75
2021/06/17 00:16:01;;;;;;;9.13;4.70;;;24.40;64.40;;;;;;5051223;28;20449;-76
2021/06/17 00:18:27;;;;;;;6.60;4.82;;;24.40;64.40;;;;;;5050348;28;20024;-75
2021/06/17 00:20:53;;;;;;;7.75;5.28;;;24.40;64.40;;;;;;5052762;28;20054;-75
2021/06/17 00:23:19;;;;;;;7.32;4.78;;;24.40;64.40;;;;;;5050588;28;20118;-75
2021/06/17 00:25:45;;;;;;;6.47;4.70;;;24.40;64.60;;;;;;5052455;28;20166;-75
2021/06/17 00:28:11;;;;;;;7.38;5.03;;;24.40;64.50;;;;;;5052336;28;20463;-75
2021/06/17 00:30:37;;;;;;;6.57;4.60;;;24.30;64.50;;;;;;5050265;28;20106;-75
2021/06/17 00:33:03;;;;;;;6.70;5.03;;;24.30;64.60;;;;;;5050949;28;20453;-75
2021/06/17 00:35:29;;;;;;;6.40;4.43;;;24.30;65.20;;;;;;5051645;28;20032;-75
2021/06/17 00:37:56;;;;;;;7.53;4.80;;;24.30;64.70;;;;;;5051272;28;20024;-75
2021/06/17 00:40:24;;;;;;;7.85;4.35;;;24.30;64.80;;;;;;5051530;28;20017;-76
2021/06/17 00:42:52;;;;;;;7.18;4.95;;;24.30;64.90;;;;;;5050469;28;20033;-74
2021/06/17 00:45:28;;;;;;;7.15;5.03;;;24.20;64.80;;;;;;5050217;28;20021;-76
2021/06/17 00:47:53;;;;;;;7.13;5.15;;;24.20;64.80;;;;;;5050407;28;20378;-76
2021/06/17 00:50:20;;;;;;;8.43;5.32;;;24.20;64.80;;;;;;5051383;28;20074;-75
2021/06/17 00:52:46;;;;;;;7.97;4.70;;;24.20;65.00;;;;;;5050616;28;20047;-75
2021/06/17 00:55:13;;;;;;;7.25;4.57;;;24.20;65.10;;;;;;5052097;28;20025;-75
2021/06/17 00:57:39;;;;;;;6.80;5.25;;;24.10;65.10;;;;;;5050504;28;20465;-76
2021/06/17 01:00:08;;;;;;;9.52;5.55;;;24.10;65.10;;;;;;5050587;28;20049;-74
2021/06/17 01:02:33;;;;;;;6.78;5.10;;;24.10;65.30;;;;;;5050008;28;20020;-75
2021/06/17 01:04:59;;;;;;;8.73;4.95;;;24.10;65.40;;;;;;5051790;28;20029;-75
2021/06/17 01:07:39;;;;;;;8.70;4.93;;;24.00;65.50;;;;;;5049593;28;20079;-75
2021/06/17 01:10:44;;;;;;;7.30;4.80;;;24.00;65.60;;;;;;5051579;28;20020;-75
2021/06/17 01:13:13;;;;;;;10.98;5.63;;;24.00;65.70;;;;;;5051604;28;20025;-75
2021/06/17 01:15:57;;;;;;;7.22;4.90;;;24.00;65.60;;;;;;5050984;28;20472;-75
2021/06/17 01:18:25;;;;;;;8.55;5.53;;;24.00;65.80;;;;;;5050922;28;20048;-76
2021/06/17 01:20:54;;;;;;;7.20;4.97;;;23.90;65.90;;;;;;5051783;28;20017;-76
2021/06/17 01:23:36;;;;;;;9.65;5.50;;;23.90;65.90;;;;;;5050687;28;20023;-76
2021/06/17 01:26:36;;;;;;;8.57;5.43;;;23.90;66.10;;;;;;5051464;28;20021;-76
2021/06/17 01:29:03;;;;;;;7.53;4.82;;;23.90;66.20;;;;;;5051554;28;20040;-75
2021/06/17 01:31:33;;;;;;;10.95;4.93;;;23.80;66.20;;;;;;5049455;28;20189;-75
2021/06/17 01:34:00;;;;;;;7.95;5.18;;;23.90;66.30;;;;;;5050257;28;20017;-75
2021/06/17 01:36:32;;;;;;;8.55;5.43;;;23.80;66.30;;;;;;5049771;28;20014;-75
2021/06/17 01:39:01;;;;;;;6.85;5.22;;;23.80;66.40;;;;;;5050383;28;20071;-76
2021/06/17 01:41:32;;;;;;;8.10;5.28;;;23.80;66.50;;;;;;5049676;28;20070;-75
2021/06/17 01:44:00;;;;;;;10.30;5.63;;;23.80;66.70;;;;;;5051681;28;20048;-75
2021/06/17 01:46:26;;;;;;;7.95;5.03;;;23.70;66.70;;;;;;5049569;28;20071;-76
2021/06/17 01:48:53;;;;;;;9.55;5.55;;;23.70;66.90;;;;;;5051723;28;20163;-74
2021/06/17 01:51:21;;;;;;;8.40;5.82;;;23.70;67.20;;;;;;5055221;28;20236;-75
2021/06/17 01:53:48;;;;;;;8.48;5.28;;;23.70;67.50;;;;;;5054024;28;20025;-75
2021/06/17 01:56:17;;;;;;;8.02;5.70;;;23.60;67.20;;;;;;5055291;28;20053;-75
2021/06/17 01:58:45;;;;;;;10.65;5.90;;;23.70;67.30;;;;;;5054256;28;20054;-75
2021/06/17 02:01:13;;;;;;;9.07;4.97;;;23.70;67.50;;;;;;5053817;28;20064;-75
2021/06/17 02:03:43;;;;;;;9.38;5.75;;;23.60;67.40;;;;;;5053138;28;20432;-75
2021/06/17 02:06:09;;;;;;;7.00;5.18;;;23.60;67.40;;;;;;5054768;28;20083;-75
2021/06/17 02:08:35;;;;;;;6.95;5.53;;;23.60;67.50;;;;;;5052890;28;20037;-75
2021/06/17 02:11:01;;;;;;;9.48;5.65;;;23.60;67.50;;;;;;5055026;28;20158;-76
2021/06/17 02:13:30;;;;;;;8.65;6.03;;;23.60;67.60;;;;;;5054328;28;20078;-74
2021/06/17 02:15:58;;;;;;;8.75;5.53;;;23.50;67.70;;;;;;5053519;28;20032;-75
2021/06/17 02:18:25;;;;;;;8.35;5.53;;;23.60;67.90;;;;;;5054314;28;20337;-78
2021/06/17 02:20:53;;;;;;;9.02;6.40;;;23.50;67.90;;;;;;5053586;28;20021;-75
2021/06/17 02:23:21;;;;;;;10.00;6.80;;;23.50;68.20;;;;;;5053466;28;20052;-76
2021/06/17 02:25:50;;;;;;;10.27;6.68;;;23.50;68.40;;;;;;5052940;28;20036;-75
2021/06/17 02:28:19;;;;;;;10.35;7.32;;;23.40;69.20;;;;;;5054513;28;20025;-75
2021/06/17 02:30:46;;;;;;;9.60;6.22;;;23.40;68.90;;;;;;5053626;28;20630;-76
2021/06/17 02:33:13;;;;;;;9.77;7.22;;;23.40;68.90;;;;;;5053242;28;20048;-75
2021/06/17 02:35:43;;;;;;;10.25;6.78;;;23.40;69.00;;;;;;5053849;28;20021;-75
2021/06/17 02:38:11;;;;;;;8.57;5.85;;;23.40;69.00;;;;;;5053448;28;20400;-74
2021/06/17 02:40:41;;;;;;;9.80;6.53;;;23.40;69.00;;;;;;5053504;28;20108;-74
2021/06/17 02:43:12;;;;;;;9.75;6.90;;;23.40;69.10;;;;;;5054325;28;20159;-75
2021/06/17 02:45:38;;;;;;;;;;;23.40;69.20;;;;;;5052993;28;20017;-75
2021/06/17 02:48:04;;;;;;;10.30;6.45;;;23.30;68.90;;;;;;5053815;28;19913;-75
2021/06/17 02:50:30;;;;;;;8.93;5.85;;;23.30;68.90;;;;;;5053691;28;20428;-75
2021/06/17 02:52:56;;;;;;;9.13;6.35;;;23.30;68.90;;;;;;5052808;28;20020;-74
2021/06/17 02:55:22;;;;;;;10.35;6.47;;;23.30;69.10;;;;;;5052786;28;20187;-75
2021/06/17 02:58:18;;;;;;;11.77;6.85;;;23.30;69.30;;;;;;5053195;28;20497;-74
2021/06/17 03:00:56;;;;;;;8.57;5.60;;;23.30;69.50;;;;;;5050680;28;20033;-75
2021/06/17 03:03:36;;;;;;;9.43;6.95;;;23.30;69.50;;;;;;5052107;28;20013;-75
2021/06/17 03:06:19;;;;;;;11.82;7.05;;;23.30;69.60;;;;;;5052603;28;20075;-75
2021/06/17 03:09:04;;;;;;;8.75;6.40;;;23.20;69.70;;;;;;5051925;28;20024;-76
2021/06/17 03:11:35;;;;;;;8.75;6.60;;;23.20;69.80;;;;;;5053023;28;20025;-75
2021/06/17 03:14:14;;;;;;;11.50;7.50;;;23.20;69.70;;;;;;5053723;28;20519;-75
2021/06/17 03:16:45;;;;;;;10.25;7.15;;;23.20;69.80;;;;;;5051885;28;20447;-75
2021/06/17 03:19:11;;;;;;;9.85;7.53;;;23.20;69.70;;;;;;5052417;28;20029;-75
2021/06/17 03:21:43;;;;;;;11.32;7.72;;;23.20;69.80;;;;;;5052754;28;20381;-75
2021/06/17 03:24:10;;;;;;;9.63;7.28;;;23.20;69.90;;;;;;5053696;28;20028;-74
2021/06/17 03:26:39;;;;;;;9.00;6.30;;;23.20;69.90;;;;;;5052869;28;20020;-76
2021/06/17 03:29:06;;;;;;;11.65;7.82;;;23.20;69.80;;;;;;5053388;28;20107;-74
2021/06/17 03:31:33;;;;;;;11.38;8.15;;;23.30;69.80;;;;;;5052875;28;20056;-74
2021/06/17 03:34:00;;;;;;;9.38;7.60;;;23.30;69.80;;;;;;5053465;28;20044;-74
2021/06/17 03:36:26;;;;;;;12.60;8.15;;;23.30;69.80;;;;;;5053381;28;20021;-75
2021/06/17 03:38:53;;;;;;;12.73;8.20;;;23.40;69.90;;;;;;5051353;28;20445;-76
2021/06/17 03:41:19;;;;;;;11.25;7.53;;;23.30;69.80;;;;;;5051950;28;20012;-75
2021/06/17 03:43:47;;;;;;;10.70;7.50;;;23.30;69.90;;;;;;5051224;28;20036;-75
2021/06/17 03:46:14;;;;;;;11.18;8.27;;;23.30;70.20;;;;;;5051775;28;20021;-75
2021/06/17 03:48:44;;;;;;;10.32;7.97;;;23.30;70.20;;;;;;5050655;28;20052;-76
2021/06/17 03:51:13;;;;;;;10.50;7.57;;;23.30;70.30;;;;;;5051789;28;20360;-75
2021/06/17 03:53:40;;;;;;;11.02;7.75;;;23.30;70.30;;;;;;5040738;28;20053;-75
2021/06/17 03:56:07;;;;;;;11.15;7.82;;;23.30;70.50;;;;;;5051703;28;20025;-75
2021/06/17 03:58:33;;;;;;;10.75;8.23;;;23.20;70.50;;;;;;5052323;28;20078;-76
2021/06/17 04:01:00;;;;;;;11.43;7.97;;;23.20;70.60;;;;;;5052257;28;20021;-75
2021/06/17 04:03:28;;;;;;;10.70;7.75;;;23.20;70.80;;;;;;5050691;28;20467;-76
2021/06/17 04:05:56;;;;;;;12.65;7.28;;;23.20;70.80;;;;;;5050773;28;20400;-76
2021/06/17 04:08:26;;;;;;;12.50;8.00;;;23.20;70.80;;;;;;5051421;28;20021;-75
2021/06/17 04:10:57;;;;;;;11.93;7.47;;;23.20;70.90;;;;;;5050495;28;20021;-76
2021/06/17 04:13:25;;;;;;;12.18;8.20;;;23.20;71.00;;;;;;5052714;28;20017;-76
2021/06/17 04:15:54;;;;;;;11.05;7.78;;;23.20;71.00;;;;;;5050684;28;20330;-76
2021/06/17 04:18:23;;;;;;;10.98;7.38;;;23.20;71.10;;;;;;5052647;28;20040;-76
2021/06/17 04:20:50;;;;;;;10.75;7.63;;;23.20;71.10;;;;;;5050617;28;20021;-76
2021/06/17 04:23:19;;;;;;;12.38;7.78;;;23.20;71.10;;;;;;5052472;28;20024;-76
2021/06/17 04:25:46;;;;;;;11.05;7.70;;;23.20;71.30;;;;;;5052118;28;20025;-75
2021/06/17 04:28:12;;;;;;;15.52;10.25;;;23.20;71.20;;;;;;5052089;28;20476;-75
2021/06/17 04:30:39;;;;;;;12.82;9.50;;;23.20;71.30;;;;;;5052133;28;20045;-76
2021/06/17 04:33:07;;;;;;;12.88;9.20;;;23.20;71.40;;;;;;5052323;28;20021;-75
2021/06/17 04:35:34;;;;;;;15.60;9.43;;;23.20;71.50;;;;;;5050895;28;20040;-76
2021/06/17 04:38:00;;;;;;;11.50;8.50;;;23.20;71.50;;;;;;5049858;28;20025;-77
2021/06/17 04:40:26;;;;;;;12.50;8.63;;;23.20;71.50;;;;;;5048716;28;20009;-75
2021/06/17 04:42:57;;;;;;;10.27;7.82;;;23.30;71.60;;;;;;5049331;28;20070;-76
2021/06/17 04:45:25;;;;;;;12.25;8.07;;;23.20;71.70;;;;;;5049560;28;20013;-76
2021/06/17 04:47:53;;;;;;;13.60;8.75;;;23.30;71.70;;;;;;5047585;28;20047;-74
2021/06/17 04:50:21;;;;;;;12.20;8.57;;;23.30;71.80;;;;;;5048160;28;20094;-76
2021/06/17 04:52:49;;;;;;;11.52;8.25;;;23.30;71.70;;;;;;5047873;28;20360;-74
2021/06/17 04:55:16;;;;;;;11.75;8.27;;;23.30;71.70;;;;;;5049582;28;20025;-76
2021/06/17 04:57:41;;;;;;;12.85;9.25;;;23.30;71.70;;;;;;5049248;28;20182;-76
2021/06/17 05:00:07;;;;;;;15.00;9.00;;;23.30;71.80;;;;;;5049721;28;20411;-82
2021/06/17 05:02:33;;;;;;;11.57;8.00;;;23.30;71.70;;;;;;5049414;28;20025;-78
2021/06/17 05:04:59;;;;;;;12.38;7.90;;;23.30;71.60;;;;;;5048005;28;20253;-76
2021/06/17 05:12:55;;;;;;;10.60;7.93;;;23.40;71.80;;;;;;5050507;28;20024;-79
2021/06/17 05:15:21;;;;;;;12.35;8.57;;;23.50;71.70;;;;;;5050528;28;20013;-79
2021/06/17 05:17:47;;;;;;;12.13;8.35;;;23.50;71.70;;;;;;5051576;28;20107;-78
2021/06/17 05:20:14;;;;;;;14.07;9.05;;;23.50;71.70;;;;;;5053429;28;20093;-79
2021/06/17 05:22:42;;;;;;;9.90;7.47;;;23.50;71.70;;;;;;5049881;28;20340;-79
2021/06/17 05:25:08;;;;;;;10.75;8.43;;;23.50;71.70;;;;;;5052539;28;20445;-78
2021/06/17 05:27:37;;;;;;;11.95;8.70;;;23.50;71.70;;;;;;5055366;28;20017;-78
2021/06/17 05:30:04;;;;;;;11.15;8.35;;;23.50;71.70;;;;;;5054841;28;20051;-78
2021/06/17 05:32:30;;;;;;;12.93;7.75;;;23.60;71.80;;;;;;5056026;28;20021;-79
2021/06/17 05:34:55;;;;;;;12.15;8.32;;;23.60;71.80;;;;;;5055176;28;20025;-79
2021/06/17 05:37:21;;;;;;;13.48;8.98;;;23.60;71.80;;;;;;5054440;28;20020;-79
2021/06/17 05:39:47;;;;;;;15.32;8.13;;;23.70;72.00;;;;;;5053721;28;20112;-79
2021/06/17 05:42:12;;;;;;;12.13;7.45;;;23.70;72.00;;;;;;5055941;28;20020;-79
2021/06/17 05:44:38;;;;;;;12.48;8.45;;;23.70;71.90;;;;;;5055332;28;20028;-78
2021/06/17 05:47:04;;;;;;;16.55;10.85;;;23.70;72.10;;;;;;5054248;28;20122;-79
2021/06/17 05:49:29;;;;;;;13.07;8.48;;;23.70;72.20;;;;;;5055652;28;20373;-79
2021/06/17 05:51:55;;;;;;;11.82;7.28;;;23.70;71.90;;;;;;5054393;28;20032;-79
2021/06/17 05:54:21;;;;;;;16.00;7.85;;;23.80;71.70;;;;;;5055240;28;20017;-79
2021/06/17 05:56:46;;;;;;;11.85;7.53;;;23.80;71.60;;;;;;5053419;28;20112;-79
2021/06/17 05:59:12;;;;;;;10.45;7.00;;;23.80;71.60;;;;;;5055261;28;20037;-78
2021/06/17 06:01:38;;;;;;;12.65;6.65;;;23.80;71.50;;;;;;5053906;28;20112;-79
2021/06/17 06:04:04;;;;;;;13.23;7.40;;;23.80;71.30;;;;;;5052764;28;20025;-79
2021/06/17 06:06:29;;;;;;;10.60;6.75;;;23.90;71.40;;;;;;5054826;28;20017;-79
2021/06/17 06:08:55;;;;;;;10.95;6.75;;;23.90;71.40;;;;;;5054235;28;20504;-79
2021/06/17 06:11:21;;;;;;;8.68;5.85;;;24.00;71.30;;;;;;5055106;28;20369;-79
2021/06/17 06:13:46;;;;;;;9.70;6.05;;;24.00;71.10;;;;;;5054315;28;20047;-79
2021/06/17 06:16:13;;;;;;;9.10;6.72;;;24.00;70.60;;;;;;5053523;28;20032;-78
2021/06/17 06:18:38;;;;;;;10.95;6.60;;;24.10;70.10;;;;;;5054683;28;20449;-79
2021/06/17 06:21:04;;;;;;;8.38;6.03;;;24.10;69.80;;;;;;5052542;28;20107;-80
2021/06/17 06:23:30;;;;;;;9.57;6.00;;;24.10;69.60;;;;;;5054839;28;20025;-79
2021/06/17 06:25:57;;;;;;;9.82;5.57;;;24.20;69.40;;;;;;5052622;28;20425;-79
2021/06/17 06:28:24;;;;;;;9.82;5.47;;;24.20;69.40;;;;;;5054453;28;20017;-79
2021/06/17 06:30:51;;;;;;;9.98;6.28;;;24.30;69.40;;;;;;5054000;28;20141;-80
2021/06/17 06:33:18;;;;;;;12.05;6.75;;;24.30;69.30;;;;;;5052931;28;20376;-79
2021/06/17 06:35:45;;;;;;;9.05;6.20;;;24.30;69.20;;;;;;5052576;28;20021;-79
2021/06/17 06:38:11;;;;;;;9.52;5.68;;;24.30;69.20;;;;;;5053077;28;20481;-79
2021/06/17 06:40:38;;;;;;;10.45;6.43;;;24.40;69.20;;;;;;5053272;28;20035;-79
2021/06/17 06:43:04;;;;;;;11.27;6.57;;;24.40;69.00;;;;;;5053955;28;20024;-79
2021/06/17 06:45:30;;;;;;;9.73;6.28;;;24.50;68.90;;;;;;5054626;28;20025;-80
2021/06/17 06:47:56;;;;;;;11.88;6.85;;;24.50;68.80;;;;;;5052010;28;20053;-79
2021/06/17 06:50:23;;;;;;;8.80;5.00;;;24.50;68.70;;;;;;5054356;28;20017;-78
2021/06/17 06:52:49;;;;;;;8.52;5.32;;;24.60;68.60;;;;;;5053528;28;20024;-80
2021/06/17 06:55:15;;;;;;;8.13;4.20;;;24.70;68.30;;;;;;5053969;28;20017;-79
2021/06/17 06:57:41;;;;;;;7.35;4.53;;;24.80;67.80;;;;;;5053012;28;20025;-79
2021/06/17 07:00:10;;;;;;;6.30;4.70;;;25.10;67.30;;;;;;5052086;28;20024;-80
2021/06/17 07:02:35;;;;;;;7.80;5.43;;;25.20;66.70;;;;;;5054163;28;20469;-79
2021/06/17 07:05:06;;;;;;;8.10;5.53;;;25.40;66.20;;;;;;5053161;28;20028;-79
2021/06/17 07:07:31;;;;;;;8.68;5.28;;;25.60;65.90;;;;;;5055504;28;20414;-78
2021/06/17 07:09:57;;;;;;;6.72;5.28;;;25.70;65.90;;;;;;5053355;28;20107;-80
2021/06/17 07:12:23;;;;;;;7.18;5.25;;;25.90;64.70;;;;;;5052838;28;20115;-78
2021/06/17 07:14:49;;;;;;;9.10;6.45;;;26.10;64.50;;;;;;5053199;28;20361;-79
2021/06/17 07:17:15;;;;;;;10.05;6.03;;;26.30;64.10;;;;;;5052481;28;20079;-80
2021/06/17 07:19:41;;;;;;;9.63;6.18;;;26.30;63.70;;;;;;5053641;28;20016;-79
2021/06/17 07:22:07;;;;;;;8.77;6.22;;;26.40;63.60;;;;;;5051607;28;20028;-79
2021/06/17 07:24:33;;;;;;;12.02;7.18;;;26.50;63.50;;;;;;5053437;28;20025;-80
2021/06/17 07:26:59;;;;;;;7.80;5.95;;;26.50;63.30;;;;;;5052831;28;20013;-79
2021/06/17 07:29:25;;;;;;;8.52;5.22;;;26.50;63.20;;;;;;5053180;28;20420;-80
2021/06/17 07:31:50;;;;;;;8.15;4.53;;;26.50;63.00;;;;;;5051636;28;20124;-81
2021/06/17 07:34:16;;;;;;;7.15;4.47;;;26.60;63.10;;;;;;5052311;28;20016;-81
2021/06/17 07:36:43;;;;;;;6.63;3.83;;;26.50;63.00;;;;;;5053827;28;20024;-80
2021/06/17 07:39:11;;;;;;;10.10;5.32;;;26.50;63.70;;;;;;5052804;28;20067;-80
2021/06/17 07:41:37;;;;;;;8.23;4.50;;;26.50;62.90;;;;;;5053414;28;20013;-80
2021/06/17 07:44:04;;;;;;;7.35;4.53;;;26.40;62.80;;;;;;5051305;28;20059;-79
2021/06/17 07:46:30;;;;;;;7.75;5.00;;;26.40;63.00;;;;;;5053141;28;20088;-80
2021/06/17 07:48:58;;;;;;;7.60;4.88;;;26.30;63.00;;;;;;5050620;28;20175;-80
2021/06/17 07:51:28;;;;;;;9.13;5.18;;;26.30;63.10;;;;;;5051955;28;20017;-81
2021/06/17 07:53:58;;;;;;;7.43;4.45;;;26.20;63.20;;;;;;5052375;28;20021;-79
2021/06/17 07:56:24;;;;;;;;;;;26.20;62.70;;;;;;5052222;28;20048;-79
2021/06/17 07:58:50;;;;;;;7.38;4.60;;;26.20;62.60;;;;;;5050910;28;20007;-80
2021/06/17 08:01:15;;;;;;;9.35;4.53;;;26.20;62.60;;;;;;5051236;28;20021;-79
2021/06/17 08:03:41;;;;;;;6.68;4.60;;;26.20;62.00;;;;;;5051582;28;20017;-80
2021/06/17 08:06:07;;;;;;;5.82;4.00;;;26.20;61.60;;;;;;5050796;28;20021;-80
2021/06/17 08:08:32;;;;;;;7.80;4.30;;;26.30;61.60;;;;;;5051368;28;20029;-79
2021/06/17 08:10:58;;;;;;;6.97;3.83;;;26.30;61.40;;;;;;5050827;28;20124;-79
2021/06/17 08:13:24;;;;;;;5.53;3.50;;;26.30;60.20;;;;;;5051362;28;20029;-79
2021/06/17 08:15:50;;;;;;;7.18;4.22;;;26.40;60.00;;;;;;5052653;28;20017;-80
2021/06/17 08:18:16;;;;;;;5.07;3.53;;;26.50;59.00;;;;;;5051407;28;20025;-80
2021/06/17 08:20:44;;;;;;;6.90;4.40;;;26.50;58.00;;;;;;5051198;28;20009;-80
2021/06/17 08:23:10;;;;;;;7.32;4.07;;;26.60;57.00;;;;;;5051130;28;20021;-80
2021/06/17 08:25:37;;;;;;;7.28;4.35;;;26.70;56.70;;;;;;5053282;28;20357;-79
2021/06/17 08:28:04;;;;;;;6.78;3.90;;;26.80;56.70;;;;;;5050197;28;20032;-79
2021/06/17 08:30:32;;;;;;;6.13;4.05;;;26.90;56.60;;;;;;5051027;28;20491;-80
2021/06/17 08:32:58;;;;;;;7.95;4.60;;;27.00;56.40;;;;;;5050412;28;20013;-80
2021/06/17 08:35:24;;;;;;;6.10;4.22;;;27.10;56.10;;;;;;5051010;28;20365;-79
2021/06/17 08:37:50;;;;;;;6.43;4.57;;;27.20;56.10;;;;;;5050867;28;20017;-80
2021/06/17 08:40:16;;;;;;;7.65;4.03;;;27.30;56.30;;;;;;5050353;28;20024;-78
2021/06/17 08:42:42;;;;;;;6.20;4.25;;;27.30;56.30;;;;;;5050684;28;20100;-79
2021/06/17 08:45:10;;;;;;;7.32;4.80;;;27.40;56.40;;;;;;5050256;28;20110;-80
2021/06/17 08:47:39;;;;;;;6.28;4.35;;;27.40;56.40;;;;;;5050976;28;20137;-79
2021/06/17 08:50:08;;;;;;;5.90;3.90;;;27.50;56.30;;;;;;5052249;28;20029;-80
2021/06/17 08:52:35;;;;;;;6.65;3.92;;;27.50;56.30;;;;;;5052323;28;20365;-79
2021/06/17 08:55:11;;;;;;;4.88;3.40;;;27.50;55.80;;;;;;5051553;28;20028;-79
2021/06/17 08:57:37;;;;;;;5.50;3.88;;;27.50;55.70;;;;;;5051347;28;20009;-79
2021/06/17 09:00:34;;;;;;;7.57;3.75;;;27.60;56.10;;;;;;5051028;28;20028;-80
2021/06/17 09:03:26;;;;;;;7.22;3.75;;;27.60;56.10;;;;;;5051185;28;20457;-79
2021/06/17 09:05:56;;;;;;;6.70;3.88;;;27.60;55.90;;;;;;5050773;28;20033;-79
2021/06/17 09:08:27;;;;;;;5.50;3.70;;;27.60;55.60;;;;;;5051992;28;20054;-79
2021/06/17 09:10:54;;;;;;;7.40;3.97;;;27.60;55.70;;;;;;5050544;28;20090;-80
2021/06/17 09:13:21;;;;;;;7.63;3.20;;;27.70;55.80;;;;;;5052138;28;20041;-80
2021/06/17 09:15:54;;;;;;;6.90;3.33;;;27.70;55.90;;;;;;5051990;28;20067;-80
2021/06/17 09:18:31;;;;;;;5.63;3.53;;;27.80;56.50;;;;;;5050399;28;20059;-79
2021/06/17 09:21:03;;;;;;;4.22;3.15;;;27.80;55.80;;;;;;5049965;28;20024;-80
2021/06/17 09:23:40;;;;;;;5.93;3.13;;;27.80;55.80;;;;;;5051908;28;20017;-80
2021/06/17 09:26:13;;;;;;;7.20;3.20;;;27.90;55.80;;;;;;5049720;28;20021;-80
2021/06/17 09:28:49;;;;;;;6.50;3.67;;;27.90;55.70;;;;;;5050612;28;20029;-79
2021/06/17 09:31:37;;;;;;;5.03;3.15;;;28.00;55.80;;;;;;5049978;28;20527;-80
2021/06/17 09:34:06;;;;;;;4.13;3.00;;;28.00;55.80;;;;;;5048934;28;20032;-80
2021/06/17 09:36:34;;;;;;;4.78;2.95;;;28.00;55.90;;;;;;5051760;28;20055;-80
2021/06/17 09:39:04;;;;;;;4.65;2.95;;;28.00;55.90;;;;;;5049714;28;20028;-80
2021/06/17 09:41:40;;;;;;;5.80;3.22;;;28.10;56.10;;;;;;5052251;28;20017;-79
2021/06/17 09:44:26;;;;;;;4.28;2.90;;;28.10;56.10;;;;;;5049938;28;20009;-79
2021/06/17 09:47:11;;;;;;;4.53;2.83;;;28.10;56.20;;;;;;5050290;28;20021;-80
2021/06/17 09:49:38;;;;;;;6.43;3.45;;;28.10;56.20;;;;;;5050112;28;20029;-80
2021/06/17 09:52:06;;;;;;;6.03;3.38;;;28.20;56.80;;;;;;5049541;28;20441;-79
2021/06/17 09:54:32;;;;;;;4.50;3.28;;;28.20;55.90;;;;;;5050281;28;20109;-79
2021/06/17 09:57:01;;;;;;;5.32;3.13;;;28.20;55.60;;;;;;5051038;28;20100;-80
2021/06/17 09:59:46;;;;;;;7.00;3.30;;;28.20;55.40;;;;;;5050090;28;20031;-79
2021/06/17 10:02:18;;;;;;;4.97;3.60;;;28.30;55.10;;;;;;5049549;28;20315;-80
2021/06/17 10:04:45;;;;;;;5.72;3.25;;;28.30;55.00;;;;;;5050049;28;20056;-80
2021/06/17 10:07:10;;;;;;;6.85;3.80;;;28.40;54.90;;;;;;5050442;28;20374;-80
2021/06/17 10:09:36;;;;;;;5.75;3.80;;;28.50;54.90;;;;;;5050224;28;20052;-80
2021/06/17 10:12:03;;;;;;;5.72;3.20;;;28.50;54.70;;;;;;5052131;28;20017;-79
2021/06/17 10:14:31;;;;;;;5.05;3.20;;;28.50;54.50;;;;;;5053501;28;20023;-80
2021/06/17 10:16:58;;;;;;;5.82;3.15;;;28.60;54.50;;;;;;5053601;28;20017;-80
2021/06/17 10:19:25;;;;;;;9.93;4.40;;;28.70;54.60;;;;;;5053496;28;20479;-80
2021/06/17 10:21:51;;;;;;;7.55;3.65;;;28.90;54.70;;;;;;5053428;28;20025;-80
2021/06/17 10:24:22;;;;;;;6.07;3.92;;;29.10;54.50;;;;;;5053027;28;20017;-80
2021/06/17 10:26:52;;;;;;;4.00;3.00;;;29.20;54.40;;;;;;5054955;28;20028;-80
2021/06/17 10:29:36;;;;;;;8.32;3.70;;;29.20;54.40;;;;;;5052702;28;20032;-80
2021/06/17 10:32:03;;;;;;;7.18;4.05;;;29.30;54.40;;;;;;5053876;28;20468;-79
2021/06/17 10:34:30;;;;;;;6.40;3.95;;;29.30;54.40;;;;;;5053452;28;20021;-79
2021/06/17 10:37:16;;;;;;;6.30;4.05;;;29.30;54.50;;;;;;5054633;28;20021;-80
2021/06/17 10:39:47;;;;;;;5.47;3.60;;;29.40;54.40;;;;;;5054603;28;20064;-79
2021/06/17 10:42:37;;;;;;;5.07;3.78;;;29.50;54.40;;;;;;5052372;28;20171;-80
2021/06/17 10:45:06;;;;;;;6.35;4.10;;;29.60;54.00;;;;;;5052811;28;20013;-80
2021/06/17 10:50:19;;;;;;;5.05;3.65;;;29.60;53.60;;;;;;5053408;28;20108;-80
2021/06/17 10:52:45;;;;;;;5.68;4.00;;;29.70;53.80;;;;;;5054238;28;20028;-81
2021/06/17 10:55:12;;;;;;;10.27;4.75;;;29.80;54.00;;;;;;5052402;28;20013;-80
2021/06/17 11:00:25;;;;;;;8.00;3.80;;;30.00;53.90;;;;;;5054119;28;20143;-80
2021/06/17 11:03:06;;;;;;;5.47;4.03;;;30.20;53.80;;;;;;5054006;28;20021;-80
2021/06/17 11:05:35;;;;;;;7.10;3.80;;;30.40;53.30;;;;;;5054047;28;20025;-80
2021/06/17 11:08:13;;;;;;;5.85;3.67;;;30.50;53.00;;;;;;5054252;28;20017;-80
2021/06/17 11:10:50;;;;;;;8.05;3.85;;;30.60;53.10;;;;;;5053981;28;20028;-80
2021/06/17 11:13:41;;;;;;;7.82;4.38;;;30.60;52.90;;;;;;5052142;28;20071;-79
2021/06/17 11:16:27;;;;;;;5.90;4.50;;;30.70;53.00;;;;;;5051735;28;20024;-81
2021/06/17 11:19:11;;;;;;;6.40;4.03;;;30.60;53.00;;;;;;5052290;28;20021;-81
2021/06/17 11:21:38;;;;;;;6.25;4.03;;;30.70;53.30;;;;;;5052062;28;20353;-79
2021/06/17 11:24:09;;;;;;;5.35;3.53;;;30.70;53.40;;;;;;5053226;28;20096;-81
2021/06/17 11:26:50;;;;;;;8.43;4.30;;;30.80;53.60;;;;;;5052284;28;20021;-80
2021/06/17 11:29:19;;;;;;;7.45;4.50;;;31.00;53.60;;;;;;5051632;28;20033;-79
2021/06/17 11:31:46;;;;;;;8.32;4.85;;;31.10;53.50;;;;;;5051858;28;20395;-79
2021/06/17 11:34:14;;;;;;;5.68;4.07;;;31.20;52.20;;;;;;5052675;28;20017;-80
2021/06/17 11:36:49;;;;;;;7.07;4.38;;;31.40;52.10;;;;;;5051888;28;20028;-79
2021/06/17 11:39:26;;;;;;;7.35;5.18;;;31.50;51.90;;;;;;5051818;28;20334;-79
2021/06/17 11:41:53;;;;;;;8.07;4.32;;;31.70;51.30;;;;;;5053076;28;20052;-79
2021/06/17 11:44:26;;;;;;;7.03;3.70;;;31.90;50.00;;;;;;5052575;28;20183;-79
2021/06/17 11:47:07;;;;;;;5.75;3.83;;;32.00;49.50;;;;;;5051703;28;20104;-79
2021/06/17 11:49:36;;;;;;;5.85;3.95;;;32.10;49.30;;;;;;5053399;28;20457;-79
2021/06/17 11:52:06;;;;;;;8.90;3.85;;;32.30;49.20;;;;;;5051621;28;20017;-79
2021/06/17 11:54:32;;;;;;;4.43;3.42;;;32.50;48.50;;;;;;5051967;28;20009;-80
2021/06/17 11:57:00;;;;;;;8.55;4.03;;;32.60;47.00;;;;;;5052771;28;20062;-80
2021/06/17 11:59:30;;;;;;;7.85;4.25;;;32.60;46.90;;;;;;5052385;28;20025;-80
2021/06/17 12:02:19;;;;;;;7.03;3.90;;;32.70;46.40;;;;;;5051616;28;20040;-80
2021/06/17 12:04:53;;;;;;;6.57;4.53;;;32.80;46.60;;;;;;5053296;28;20021;-80
2021/06/17 12:07:26;;;;;;;7.07;3.70;;;32.90;46.60;;;;;;5050949;28;20032;-80
2021/06/17 12:09:54;;;;;;;5.45;3.65;;;33.10;46.80;;;;;;5053092;28;20360;-79
2021/06/17 12:12:22;;;;;;;6.70;4.20;;;33.30;46.60;;;;;;5052222;28;20013;-80
2021/06/17 12:14:50;;;;;;;5.20;3.97;;;33.70;45.60;;;;;;5051131;28;20020;-80
2021/06/17 12:17:48;;;;;;;6.38;3.92;;;33.90;44.70;;;;;;5052327;28;20017;-79
2021/06/17 12:20:16;;;;;;;5.53;3.70;;;34.20;44.50;;;;;;5052592;28;20465;-78
2021/06/17 12:22:47;;;;;;;6.13;3.65;;;34.50;42.60;;;;;;5053169;28;20021;-79
2021/06/17 12:25:17;;;;;;;5.15;3.40;;;34.50;41.50;;;;;;5052366;28;20086;-80
2021/06/17 12:27:44;;;;;;;6.38;2.97;;;34.70;41.90;;;;;;5051457;28;20031;-79
2021/06/17 12:30:44;;;;;;;4.53;3.00;;;34.80;39.80;;;;;;5051164;28;20407;-80
2021/06/17 12:33:19;;;;;;;4.72;3.15;;;34.80;39.60;;;;;;5052555;28;20017;-80
2021/06/17 12:35:52;;;;;;;3.35;2.65;;;34.70;40.20;;;;;;5052215;28;20024;-80
2021/06/17 12:38:36;;;;;;;3.75;2.55;;;34.60;40.70;;;;;;5051826;28;20472;-79
2021/06/17 12:41:15;;;;;;;5.10;2.70;;;34.50;40.10;;;;;;5051028;28;20017;-79
2021/06/17 12:43:54;;;;;;;4.07;2.38;;;34.30;40.00;;;;;;5051050;28;20025;-80
2021/06/17 12:46:36;;;;;;;4.68;2.80;;;34.20;40.30;;;;;;5051920;28;20024;-80
2021/06/17 12:52:07;;;;;;;5.82;2.03;;;34.20;40.80;;;;;;5051643;28;20029;-80
2021/06/17 12:54:51;;;;;;;7.00;2.50;;;34.40;38.80;;;;;;5049882;28;20071;-79
2021/06/17 12:57:19;;;;;;;3.33;1.92;;;34.40;38.80;;;;;;5050210;28;20025;-81
2021/06/17 12:59:59;;;;;;;3.47;2.20;;;34.30;38.90;;;;;;5050618;28;20059;-80
2021/06/17 13:02:31;;;;;;;;;;;34.20;39.20;;;;;;5051949;28;20017;-78
2021/06/17 13:05:08;;;;;;;4.30;2.20;;;34.20;39.20;;;;;;5052077;28;19995;-80
2021/06/17 13:07:35;;;;;;;3.63;2.40;;;34.30;39.60;;;;;;5050093;28;20338;-80
2021/06/17 13:10:27;;;;;;;3.13;2.13;;;34.30;39.50;;;;;;5050320;28;20056;-80
2021/06/17 13:13:15;;;;;;;2.63;1.83;;;34.50;39.80;;;;;;5050849;28;20037;-80